createdAt,value
2023-02-19T00:02:05.880Z,13.32
2023-02-19T00:04:36.612Z,11.70
2023-02-19T00:07:07.373Z,12.77
2023-02-19T00:09:38.596Z,14.45
2023-02-19T00:12:09.294Z,13.60
2023-02-19T00:14:42.668Z,14.32
2023-02-19T00:17:13.353Z,14.60
2023-02-19T00:19:43.731Z,14.35
2023-02-19T00:22:14.696Z,15.02
2023-02-19T00:24:46.142Z,15.43
2023-02-19T00:27:18.073Z,17.70
2023-02-19T00:29:50.960Z,20.85
2023-02-19T00:32:21.970Z,20.80
2023-02-19T00:34:53.228Z,21.35
2023-02-19T00:37:23.691Z,21.13
2023-02-19T00:39:54.558Z,21.83
2023-02-19T00:42:28.973Z,22.40
2023-02-19T00:45:00.441Z,25.05
2023-02-19T00:47:31.362Z,26.73
2023-02-19T00:50:01.807Z,25.98
2023-02-19T00:52:32.630Z,25.15
2023-02-19T00:55:03.762Z,22.95
2023-02-19T00:57:34.784Z,22.77
2023-02-19T01:00:07.727Z,24.95
2023-02-19T01:02:38.794Z,22.13
2023-02-19T01:05:09.874Z,22.98
2023-02-19T01:07:43.693Z,24.42
2023-02-19T01:10:14.350Z,23.45
2023-02-19T01:12:45.987Z,23.08
2023-02-19T01:15:17.028Z,23.67
2023-02-19T01:17:48.602Z,24.45
2023-02-19T01:20:19.906Z,26.25
2023-02-19T01:22:50.521Z,22.38
2023-02-19T01:25:21.638Z,20.60
2023-02-19T01:27:52.567Z,18.05
2023-02-19T01:30:23.543Z,15.15
2023-02-19T01:32:54.292Z,15.23
2023-02-19T01:35:25.114Z,15.90
2023-02-19T01:37:55.811Z,15.90
2023-02-19T01:40:27.661Z,16.33
2023-02-19T01:42:58.845Z,20.95
2023-02-19T01:45:33.087Z,20.73
2023-02-19T01:48:11.759Z,20.63
2023-02-19T01:50:47.776Z,19.92
2023-02-19T01:53:21.091Z,17.75
2023-02-19T01:55:56.074Z,16.45
2023-02-19T01:58:38.106Z,16.38
2023-02-19T02:01:11.585Z,17.45
2023-02-19T02:03:44.208Z,17.85
2023-02-19T02:06:29.429Z,18.58
2023-02-19T02:09:19.459Z,21.35
2023-02-19T02:11:53.231Z,20.67
2023-02-19T02:14:27.706Z,22.02
2023-02-19T02:17:22.946Z,24.00
2023-02-19T02:20:10.969Z,22.88
2023-02-19T02:23:02.698Z,23.50
2023-02-19T02:25:52.897Z,20.67
2023-02-19T02:28:34.175Z,19.60
2023-02-19T02:31:09.352Z,21.58
2023-02-19T02:33:49.697Z,23.25
2023-02-19T02:36:31.950Z,26.02
2023-02-19T02:39:06.204Z,22.70
2023-02-19T02:42:10.560Z,26.48
2023-02-19T02:44:43.160Z,26.45
2023-02-19T02:47:34.625Z,27.77
2023-02-19T02:50:08.871Z,25.23
2023-02-19T02:52:59.699Z,27.98
2023-02-19T02:55:33.622Z,29.17
2023-02-19T02:58:05.170Z,30.25
2023-02-19T03:01:14.571Z,28.92
2023-02-19T03:03:47.421Z,30.40
2023-02-19T03:06:19.136Z,36.33
2023-02-19T03:09:06.940Z,35.38
2023-02-19T03:12:04.544Z,32.33
2023-02-19T03:15:06.892Z,26.75
2023-02-19T03:18:12.141Z,26.10
2023-02-19T03:20:47.096Z,26.20
2023-02-19T03:23:19.766Z,25.38
2023-02-19T03:26:05.811Z,21.75
2023-02-19T03:29:13.601Z,16.83
2023-02-19T03:31:47.034Z,12.50
2023-02-19T03:34:26.310Z,12.63
2023-02-19T03:37:08.127Z,12.90
2023-02-19T03:39:45.365Z,10.23
2023-02-19T03:42:25.018Z,10.07
2023-02-19T03:45:37.858Z,13.00
2023-02-19T03:48:39.303Z,11.60
2023-02-19T03:51:30.421Z,11.32
2023-02-19T03:54:30.138Z,11.07
2023-02-19T03:57:18.738Z,11.90
2023-02-19T04:00:20.346Z,12.15
2023-02-19T04:03:03.201Z,13.52
2023-02-19T04:05:36.714Z,10.90
2023-02-19T04:08:15.673Z,10.13
2023-02-19T04:10:52.316Z,11.60
2023-02-19T04:13:36.478Z,12.20
2023-02-19T04:16:14.768Z,11.00
2023-02-19T04:18:46.155Z,12.68
2023-02-19T04:21:18.160Z,13.07
2023-02-19T04:23:53.414Z,11.63
2023-02-19T04:26:24.752Z,12.60
2023-02-19T04:28:56.134Z,13.43
2023-02-19T04:31:29.409Z,13.85
2023-02-19T04:34:00.501Z,15.73
2023-02-19T04:36:35.501Z,13.85
2023-02-19T04:39:06.825Z,15.10
2023-02-19T04:41:37.406Z,15.40
2023-02-19T04:44:08.405Z,15.90
2023-02-19T04:46:38.710Z,14.70
2023-02-19T04:49:09.593Z,13.35
2023-02-19T04:51:40.741Z,14.88
2023-02-19T04:54:11.347Z,15.35
2023-02-19T04:56:42.330Z,18.70
2023-02-19T04:59:13.902Z,18.73
2023-02-19T05:01:53.551Z,19.98
2023-02-19T05:04:24.934Z,17.42
2023-02-19T05:06:55.823Z,17.27
2023-02-19T05:09:26.955Z,15.55
2023-02-19T05:11:57.929Z,16.15
2023-02-19T05:14:28.828Z,18.23
2023-02-19T05:16:59.654Z,17.23
2023-02-19T05:19:30.704Z,15.88
2023-02-19T05:22:01.908Z,16.35
2023-02-19T05:24:32.626Z,15.25
2023-02-19T05:27:03.259Z,15.55
2023-02-19T05:29:34.249Z,15.60
2023-02-19T05:32:05.415Z,16.85
2023-02-19T05:34:36.689Z,17.40
2023-02-19T05:37:07.486Z,18.35
2023-02-19T05:39:38.146Z,17.90
2023-02-19T05:42:09.342Z,18.33
2023-02-19T05:44:40.177Z,18.35
2023-02-19T05:47:11.262Z,19.10
2023-02-19T05:49:42.240Z,18.67
2023-02-19T05:52:13.207Z,19.38
2023-02-19T05:54:43.564Z,19.58
2023-02-19T05:57:14.248Z,21.42
2023-02-19T05:59:45.228Z,19.98
2023-02-19T06:02:16.136Z,21.25
2023-02-19T06:04:47.863Z,20.98
2023-02-19T06:07:18.692Z,21.00
2023-02-19T06:09:52.570Z,21.02
2023-02-19T06:12:23.538Z,21.65
2023-02-19T06:15:05.382Z,22.05
2023-02-19T06:17:36.712Z,21.33
2023-02-19T06:20:07.921Z,23.67
2023-02-19T06:22:38.688Z,23.13
2023-02-19T06:25:13.538Z,24.75
2023-02-19T06:27:43.953Z,24.63
2023-02-19T06:30:14.924Z,28.52
2023-02-19T06:32:46.012Z,26.42
2023-02-19T06:35:17.088Z,25.38
2023-02-19T06:37:54.372Z,25.75
2023-02-19T06:40:25.263Z,25.63
2023-02-19T06:42:56.581Z,26.88
2023-02-19T06:45:26.884Z,27.15
2023-02-19T06:47:58.097Z,26.40
2023-02-19T06:50:28.431Z,27.02
2023-02-19T06:52:59.108Z,28.48
2023-02-19T06:55:29.832Z,29.63
2023-02-19T06:58:00.605Z,28.73
2023-02-19T07:00:31.484Z,28.17
2023-02-19T07:03:04.479Z,25.23
2023-02-19T07:05:36.673Z,24.70
2023-02-19T07:08:07.949Z,24.08
2023-02-19T07:10:38.818Z,24.98
2023-02-19T07:13:09.922Z,25.38
2023-02-19T07:15:40.802Z,28.60
2023-02-19T07:18:11.441Z,23.67
2023-02-19T07:20:42.085Z,24.77
2023-02-19T07:23:23.673Z,23.95
2023-02-19T07:25:55.208Z,23.05
2023-02-19T07:28:26.780Z,20.85
2023-02-19T07:31:02.805Z,20.00
2023-02-19T07:33:33.593Z,21.85
2023-02-19T07:36:05.118Z,21.40
2023-02-19T07:38:35.776Z,20.40
2023-02-19T07:41:07.410Z,20.77
2023-02-19T07:43:39.362Z,23.63
2023-02-19T07:46:13.047Z,23.63
2023-02-19T07:48:45.435Z,23.67
2023-02-19T07:51:19.974Z,22.33
2023-02-19T07:53:51.908Z,22.40
2023-02-19T07:56:23.267Z,21.27
2023-02-19T07:58:53.924Z,22.23
2023-02-19T08:01:44.542Z,22.65
2023-02-19T08:04:16.777Z,22.77
2023-02-19T08:06:47.479Z,21.33
2023-02-19T08:09:21.056Z,21.25
2023-02-19T08:12:11.116Z,21.98
2023-02-19T08:14:42.145Z,21.95
2023-02-19T08:17:12.740Z,20.95
2023-02-19T08:19:44.081Z,21.05
2023-02-19T08:22:22.841Z,21.35
2023-02-19T08:24:53.757Z,19.90
2023-02-19T08:27:25.001Z,20.65
2023-02-19T08:29:56.200Z,19.83
2023-02-19T08:32:26.905Z,21.38
2023-02-19T08:34:57.865Z,19.85
2023-02-19T08:37:29.207Z,20.23
2023-02-19T08:39:59.742Z,19.13
2023-02-19T08:42:30.992Z,18.50
2023-02-19T08:45:01.677Z,18.77
2023-02-19T08:47:35.064Z,18.33
2023-02-19T08:50:07.781Z,18.13
2023-02-19T08:52:38.641Z,17.13
2023-02-19T08:55:10.085Z,17.40
2023-02-19T08:57:42.672Z,16.35
2023-02-19T09:00:17.242Z,17.92
2023-02-19T09:02:49.081Z,15.65
2023-02-19T09:05:20.027Z,16.73
2023-02-19T09:07:50.621Z,14.88
2023-02-19T09:10:21.505Z,14.77
2023-02-19T09:12:52.232Z,15.00
2023-02-19T09:15:23.297Z,13.50
2023-02-19T09:17:57.077Z,14.88
2023-02-19T09:20:27.542Z,14.00
2023-02-19T09:23:03.631Z,13.25
2023-02-19T09:25:34.940Z,14.13
2023-02-19T09:28:06.132Z,14.45
2023-02-19T09:30:36.937Z,13.77
2023-02-19T09:33:07.899Z,17.90
2023-02-19T09:35:41.514Z,20.42
2023-02-19T09:38:12.420Z,22.52
2023-02-19T09:40:45.822Z,21.13
2023-02-19T09:43:26.425Z,20.60
2023-02-19T09:46:06.066Z,19.83
2023-02-19T09:48:37.310Z,18.83
2023-02-19T09:51:10.478Z,18.73
2023-02-19T09:53:48.518Z,17.38
2023-02-19T09:56:21.474Z,17.63
2023-02-19T09:58:55.117Z,18.30
2023-02-19T10:01:28.280Z,20.77
2023-02-19T10:03:59.442Z,18.60
2023-02-19T10:06:31.279Z,18.70
2023-02-19T10:09:15.580Z,16.88
2023-02-19T10:11:47.200Z,18.83
2023-02-19T10:14:44.580Z,23.17
2023-02-19T10:17:32.443Z,23.08
2023-02-19T10:20:07.173Z,21.88
2023-02-19T10:22:38.956Z,20.88
2023-02-19T10:25:15.804Z,21.10
2023-02-19T10:27:47.118Z,20.95
2023-02-19T10:30:26.410Z,21.13
2023-02-19T10:33:18.029Z,22.52
2023-02-19T10:36:09.307Z,22.58
2023-02-19T10:38:48.426Z,23.55
2023-02-19T10:41:24.078Z,24.40
2023-02-19T10:44:18.736Z,24.48
2023-02-19T10:47:00.091Z,25.05
2023-02-19T10:49:44.952Z,28.33
2023-02-19T10:52:37.547Z,28.77
2023-02-19T10:55:31.480Z,26.67
2023-02-19T10:58:28.999Z,27.98
2023-02-19T11:01:23.086Z,27.55
2023-02-19T11:04:14.936Z,27.80
2023-02-19T11:06:46.876Z,26.52
2023-02-19T11:09:28.710Z,24.10
2023-02-19T11:12:00.435Z,23.67
2023-02-19T11:14:32.506Z,24.63
2023-02-19T11:17:06.489Z,23.60
2023-02-19T11:19:37.723Z,25.45
2023-02-19T11:22:31.363Z,25.40
2023-02-19T11:25:05.918Z,28.42
2023-02-19T11:27:37.021Z,30.63
2023-02-19T11:30:36.670Z,32.88
2023-02-19T11:33:25.668Z,41.05
2023-02-19T11:36:19.081Z,32.85
2023-02-19T11:38:50.692Z,30.45
2023-02-19T11:41:46.184Z,31.80
2023-02-19T11:44:37.963Z,31.92
2023-02-19T11:47:41.878Z,27.52
2023-02-19T11:50:46.337Z,29.48
2023-02-19T11:53:28.966Z,28.63
2023-02-19T11:56:22.809Z,27.83
2023-02-19T11:59:02.551Z,27.52
2023-02-19T12:02:00.409Z,28.65
2023-02-19T12:04:58.081Z,27.83
2023-02-19T14:39:49.498Z,24.98
2023-02-19T14:42:24.532Z,26.20
2023-02-19T14:45:00.858Z,24.25
2023-02-19T14:47:35.928Z,24.80
2023-02-19T14:50:18.895Z,23.67
2023-02-19T14:52:58.914Z,25.65
2023-02-19T14:55:34.861Z,24.90
2023-02-19T14:58:18.404Z,26.40
2023-02-19T15:00:49.150Z,23.63
2023-02-19T15:03:50.082Z,24.27
2023-02-19T15:06:21.429Z,24.17
2023-02-19T15:08:55.789Z,23.42
2023-02-19T15:11:28.545Z,23.42
2023-02-19T15:14:01.379Z,23.25
2023-02-19T15:16:36.235Z,21.52
2023-02-19T15:19:09.677Z,21.60
2023-02-19T15:21:42.986Z,20.83
2023-02-19T15:24:16.181Z,20.70
2023-02-19T15:26:51.920Z,21.27
2023-02-19T15:29:25.469Z,20.48
2023-02-19T15:32:01.769Z,21.02
2023-02-19T15:34:33.995Z,20.65
2023-02-19T15:37:08.782Z,21.27
2023-02-19T15:39:47.372Z,20.30
2023-02-19T15:42:34.374Z,21.40
2023-02-19T15:45:17.705Z,26.95
2023-02-19T15:48:00.306Z,22.58
2023-02-19T15:50:36.255Z,21.25
2023-02-19T15:53:23.462Z,18.60
2023-02-19T15:56:01.921Z,18.70
2023-02-19T15:58:45.067Z,17.67
2023-02-19T16:01:26.337Z,18.60
2023-02-19T16:03:57.860Z,18.52
2023-02-19T16:06:29.212Z,17.65
2023-02-19T16:09:06.622Z,19.17
2023-02-19T16:11:37.148Z,18.58
2023-02-19T16:14:33.666Z,19.30
2023-02-19T16:17:14.540Z,20.38
2023-02-19T16:19:45.133Z,18.35
2023-02-19T16:22:20.299Z,18.65
2023-02-19T16:24:53.240Z,20.10
2023-02-19T16:27:37.997Z,20.00
2023-02-19T16:30:13.044Z,20.73
2023-02-19T16:32:45.239Z,20.98
2023-02-19T16:35:53.132Z,21.38
2023-02-19T16:38:23.744Z,23.90
2023-02-19T16:41:05.760Z,21.75
2023-02-19T16:43:44.823Z,24.23
2023-02-19T16:46:15.903Z,23.45
2023-02-19T16:48:50.285Z,23.55
2023-02-19T16:51:27.614Z,23.95
2023-02-19T16:53:58.707Z,23.42
2023-02-19T16:56:32.044Z,22.42
2023-02-19T16:59:02.578Z,22.70
2023-02-19T17:01:33.359Z,22.30
2023-02-19T17:04:09.967Z,21.67
2023-02-19T17:06:41.007Z,21.38
2023-02-19T17:09:11.587Z,20.58
2023-02-19T17:11:43.272Z,20.15
2023-02-19T17:14:13.832Z,20.52
2023-02-19T17:16:44.300Z,19.83
2023-02-19T17:19:19.106Z,18.48
2023-02-19T17:21:49.494Z,20.42
2023-02-19T17:24:20.373Z,20.77
2023-02-19T17:26:51.206Z,20.52
2023-02-19T17:29:24.435Z,21.00
2023-02-19T17:31:54.862Z,25.55
2023-02-19T17:34:28.217Z,24.58
2023-02-19T17:36:59.138Z,26.17
2023-02-19T17:39:29.398Z,23.20
2023-02-19T17:41:59.767Z,24.90
2023-02-19T17:44:30.340Z,24.17
2023-02-19T17:47:00.902Z,25.00
2023-02-19T17:49:32.046Z,24.40
2023-02-19T17:52:02.344Z,22.42
2023-02-19T17:54:32.688Z,23.08
2023-02-19T17:57:03.080Z,23.48
2023-02-19T17:59:33.376Z,24.08
2023-02-19T18:02:04.365Z,24.50
2023-02-19T18:04:36.617Z,23.00
2023-02-19T18:07:07.237Z,25.90
2023-02-19T18:09:38.463Z,26.40
2023-02-19T18:12:09.182Z,25.70
2023-02-19T18:14:40.092Z,27.95
2023-02-19T18:17:11.247Z,26.33
2023-02-19T18:19:45.900Z,26.08
2023-02-19T18:22:16.472Z,24.38
2023-02-19T18:24:48.597Z,23.88
2023-02-19T18:27:21.193Z,23.55
2023-02-19T18:29:55.822Z,25.73
2023-02-19T18:32:26.882Z,24.55
2023-02-19T18:34:59.126Z,24.88
2023-02-19T18:37:34.804Z,25.52
2023-02-19T18:40:06.489Z,25.05
2023-02-19T18:42:36.832Z,24.40
2023-02-19T18:45:07.289Z,25.05
2023-02-19T18:47:37.880Z,25.25
2023-02-19T18:50:10.665Z,26.83
2023-02-19T18:52:42.545Z,27.15
2023-02-19T18:55:13.746Z,27.65
2023-02-19T18:57:45.060Z,27.02
2023-02-19T19:00:21.676Z,29.95
2023-02-19T19:02:52.209Z,29.35
2023-02-19T19:05:23.842Z,28.48
2023-02-19T19:07:56.224Z,27.13
2023-02-19T19:10:27.496Z,26.75
2023-02-19T19:12:58.612Z,27.38
2023-02-19T19:15:29.726Z,26.45
2023-02-19T19:18:00.945Z,25.55
2023-02-19T19:20:32.396Z,26.20
2023-02-19T19:23:03.523Z,27.02
2023-02-19T19:25:33.907Z,26.17
2023-02-19T19:28:04.758Z,26.88
2023-02-19T19:30:35.407Z,26.38
2023-02-19T19:33:06.251Z,27.52
2023-02-19T19:35:36.567Z,25.30
2023-02-19T19:38:07.111Z,28.15
2023-02-19T19:40:38.298Z,27.90
2023-02-19T19:43:08.470Z,29.17
2023-02-19T19:45:39.554Z,29.10
2023-02-19T19:48:10.700Z,27.95
2023-02-19T19:50:41.669Z,28.73
2023-02-19T19:53:14.811Z,30.13
2023-02-19T19:55:45.821Z,29.58
2023-02-19T19:58:23.686Z,29.67
2023-02-19T20:00:54.595Z,30.10
2023-02-19T20:03:25.202Z,32.35
2023-02-19T20:05:55.749Z,33.72
2023-02-19T20:08:26.444Z,32.78
2023-02-19T20:10:56.760Z,31.60
2023-02-19T20:13:30.226Z,29.95
2023-02-19T20:16:00.564Z,29.65
2023-02-19T20:18:31.542Z,30.17
2023-02-19T20:21:02.464Z,30.45
2023-02-19T20:23:34.266Z,29.83
2023-02-19T20:26:06.329Z,31.00
2023-02-19T20:28:37.249Z,29.50
2023-02-19T20:31:10.187Z,30.73
2023-02-19T20:33:41.031Z,32.22
2023-02-19T20:36:11.613Z,30.65
2023-02-19T20:38:44.542Z,33.40
2023-02-19T20:41:17.846Z,34.65
2023-02-19T20:43:48.549Z,30.67
2023-02-19T20:46:19.019Z,28.65
2023-02-19T20:48:51.608Z,28.15
2023-02-19T20:51:22.789Z,27.77
2023-02-19T20:53:53.816Z,27.85
2023-02-19T20:56:24.665Z,28.23
2023-02-19T20:58:55.299Z,27.77
2023-02-19T21:01:28.940Z,28.70
2023-02-19T21:03:59.484Z,29.05
2023-02-19T21:06:29.780Z,29.50
2023-02-19T21:09:00.825Z,28.92
2023-02-19T21:11:31.364Z,28.50
2023-02-19T21:14:01.977Z,30.08
2023-02-19T21:16:33.600Z,30.73
2023-02-19T21:19:04.138Z,30.35
2023-02-19T21:21:36.321Z,30.58
2023-02-19T21:24:07.440Z,33.67
2023-02-19T21:26:39.878Z,33.08
2023-02-19T21:29:14.861Z,32.20
2023-02-19T21:31:47.687Z,29.92
2023-02-19T21:34:20.900Z,30.52
2023-02-19T21:36:51.594Z,30.17
2023-02-19T21:39:23.999Z,27.95
2023-02-19T21:42:10.382Z,27.40
2023-02-19T21:44:43.248Z,29.10
2023-02-19T21:47:16.129Z,26.65
2023-02-19T21:49:47.018Z,26.80
2023-02-19T21:52:17.679Z,26.75
2023-02-19T21:54:48.514Z,26.30
2023-02-19T21:57:18.986Z,26.88
2023-02-19T21:59:49.376Z,26.83
2023-02-19T22:02:23.088Z,27.85
2023-02-19T22:04:55.216Z,26.67
2023-02-19T22:07:26.841Z,28.45
2023-02-19T22:09:59.486Z,27.33
2023-02-19T22:12:30.651Z,28.23
2023-02-19T22:15:01.353Z,25.73
2023-02-19T22:17:31.447Z,30.63
2023-02-19T22:20:01.979Z,27.77
2023-02-19T22:22:32.298Z,26.88
2023-02-19T22:25:02.803Z,35.13
2023-02-19T22:27:33.696Z,30.15
2023-02-19T22:30:06.364Z,28.98
2023-02-19T22:32:36.998Z,27.92
2023-02-19T22:35:07.759Z,26.75
2023-02-19T22:37:38.727Z,29.83
2023-02-19T22:40:10.664Z,26.05
2023-02-19T22:42:41.024Z,27.15
2023-02-19T22:45:13.123Z,23.35
2023-02-19T22:47:45.583Z,25.92
2023-02-19T22:50:20.949Z,23.88
2023-02-19T22:52:55.805Z,24.90
2023-02-19T22:55:26.249Z,22.40
2023-02-19T22:57:57.540Z,21.15
2023-02-19T23:00:27.980Z,20.83
2023-02-19T23:02:58.672Z,21.08
2023-02-19T23:05:29.929Z,18.83
2023-02-19T23:08:00.278Z,18.00
2023-02-19T23:10:34.028Z,17.55
2023-02-19T23:13:04.660Z,17.05
2023-02-19T23:15:35.008Z,17.50
2023-02-19T23:18:07.122Z,17.83
2023-02-19T23:20:37.428Z,16.65
2023-02-19T23:23:08.058Z,17.48
2023-02-19T23:25:39.270Z,16.90
2023-02-19T23:28:09.713Z,15.70
2023-02-19T23:30:40.228Z,15.15
2023-02-19T23:33:11.227Z,15.68
2023-02-19T23:35:41.567Z,16.52
2023-02-19T23:38:12.214Z,15.40
2023-02-19T23:40:42.837Z,20.23
2023-02-19T23:43:13.620Z,16.83
2023-02-19T23:45:43.929Z,17.38
2023-02-19T23:48:14.824Z,19.67
2023-02-19T23:50:46.477Z,20.65
2023-02-19T23:53:17.178Z,19.98
2023-02-19T23:55:48.286Z,19.23
2023-02-19T23:58:19.325Z,21.42
